Terminal Aerodrome Forecast
Issued by NWS

Home | Current Version | Previous Version | Text Only | Print | Product List | Glossary On
Versions: 1 2 3 4 5 6 7 8 9 10 11 12
000
FTUS44 KEPZ 181700
TAFDMN
TAF
KDMN 181728Z 1818/1918 26012KT P6SM FEW120 FEW250
     FM182000 27020G31KT P6SM FEW120 FEW250
     FM190200 30012KT P6SM FEW250
     FM191500 28008KT P6SM SKC=

USA.gov is the U.S. government's official web portal to all federal, state and local government web resources and services.